createdAt,value
2022-08-30T00:00:53.770Z,2.72
2022-08-30T00:03:23.988Z,2.67
2022-08-30T00:05:53.834Z,2.47
2022-08-30T00:08:28.627Z,2.70
2022-08-30T00:10:58.737Z,3.00
2022-08-30T00:13:28.338Z,2.78
2022-08-30T00:15:58.009Z,3.33
2022-08-30T00:18:28.182Z,2.55
2022-08-30T00:20:58.275Z,2.25
2022-08-30T00:23:30.578Z,2.60
2022-08-30T00:26:00.123Z,2.83
2022-08-30T00:28:30.386Z,2.80
2022-08-30T00:31:00.316Z,3.25
2022-08-30T00:33:29.958Z,3.33
2022-08-30T00:35:59.563Z,2.88
2022-08-30T00:38:31.773Z,2.83
2022-08-30T00:41:02.287Z,3.13
2022-08-30T00:43:34.214Z,3.30
2022-08-30T00:46:08.710Z,2.88
2022-08-30T00:48:40.985Z,2.85
2022-08-30T00:51:12.569Z,3.45
2022-08-30T00:53:45.815Z,3.20
2022-08-30T00:56:15.631Z,2.67
2022-08-30T00:58:46.874Z,2.58
2022-08-30T01:01:16.634Z,2.75
2022-08-30T01:03:47.139Z,3.35
2022-08-30T01:06:17.920Z,2.63
2022-08-30T01:08:50.683Z,3.40
2022-08-30T01:11:21.702Z,3.40
2022-08-30T01:13:51.724Z,2.88
2022-08-30T01:16:22.253Z,3.28
2022-08-30T01:18:52.557Z,3.15
2022-08-30T01:21:25.686Z,3.40
2022-08-30T01:23:59.791Z,3.45
2022-08-30T01:26:31.412Z,3.22
2022-08-30T01:29:02.996Z,4.20
2022-08-30T01:31:32.863Z,3.22
2022-08-30T01:34:04.097Z,3.10
2022-08-30T01:36:33.783Z,4.22
2022-08-30T01:39:06.678Z,3.75
2022-08-30T01:41:37.592Z,3.53
2022-08-30T01:44:09.664Z,3.78
2022-08-30T01:46:40.450Z,3.40
2022-08-30T01:49:11.096Z,3.65
2022-08-30T01:51:40.915Z,3.55
2022-08-30T01:54:13.373Z,4.18
2022-08-30T01:56:43.228Z,3.53
2022-08-30T01:59:12.802Z,4.45
2022-08-30T02:01:43.903Z,3.75
2022-08-30T02:04:15.702Z,3.63
2022-08-30T02:06:45.384Z,3.58
2022-08-30T02:09:17.607Z,4.10
2022-08-30T02:11:48.447Z,3.60
2022-08-30T02:14:18.091Z,4.05
2022-08-30T02:16:50.931Z,3.72
2022-08-30T02:19:20.883Z,3.67
2022-08-30T02:21:50.493Z,3.90
2022-08-30T02:24:22.801Z,4.50
2022-08-30T02:26:53.253Z,4.28
2022-08-30T02:29:23.425Z,4.00
2022-08-30T02:31:53.149Z,3.78
2022-08-30T02:34:22.949Z,4.55
2022-08-30T02:36:52.550Z,4.50
2022-08-30T02:39:24.837Z,4.60
2022-08-30T02:41:54.516Z,4.45
2022-08-30T02:44:24.250Z,4.95
2022-08-30T02:46:53.849Z,5.03
2022-08-30T02:49:33.270Z,5.05
2022-08-30T02:52:03.432Z,4.47
2022-08-30T02:54:36.150Z,4.57
2022-08-30T02:57:06.871Z,4.38
2022-08-30T02:59:41.790Z,5.30
2022-08-30T03:02:11.390Z,4.82
2022-08-30T03:04:43.657Z,4.93
2022-08-30T03:07:13.872Z,4.78
2022-08-30T03:09:46.096Z,4.80
2022-08-30T03:12:15.667Z,5.35
2022-08-30T03:14:45.299Z,3.97
2022-08-30T03:17:15.760Z,4.95
2022-08-30T03:19:46.269Z,4.47
2022-08-30T03:22:15.935Z,4.90
2022-08-30T03:24:48.543Z,4.40
2022-08-30T03:27:18.174Z,4.57
2022-08-30T03:29:47.732Z,4.82
2022-08-30T03:32:17.409Z,5.30
2022-08-30T03:34:47.037Z,5.40
2022-08-30T03:37:16.831Z,4.97
2022-08-30T03:39:49.091Z,4.32
2022-08-30T03:42:18.693Z,4.38
2022-08-30T03:44:48.308Z,4.68
2022-08-30T03:47:17.920Z,5.38
2022-08-30T03:49:47.512Z,4.68
2022-08-30T03:52:17.082Z,5.43
2022-08-30T03:54:50.871Z,4.55
2022-08-30T03:57:24.570Z,4.45
2022-08-30T03:59:54.344Z,5.15
2022-08-30T04:02:24.080Z,4.53
2022-08-30T04:04:53.826Z,4.45
2022-08-30T04:07:23.399Z,4.82
2022-08-30T04:09:55.585Z,4.65
2022-08-30T04:12:25.209Z,4.40
2022-08-30T04:14:54.969Z,4.82
2022-08-30T04:17:24.540Z,4.55
2022-08-30T04:19:54.161Z,4.93
2022-08-30T04:22:23.902Z,4.95
2022-08-30T04:24:56.137Z,4.03
2022-08-30T04:27:25.766Z,4.55
2022-08-30T04:29:56.568Z,4.45
2022-08-30T04:32:26.336Z,4.53
2022-08-30T04:34:59.854Z,4.57
2022-08-30T04:37:29.668Z,4.95
2022-08-30T04:40:03.326Z,4.50
2022-08-30T04:42:34.528Z,4.38
2022-08-30T04:45:04.726Z,5.00
2022-08-30T04:47:34.358Z,4.20
2022-08-30T04:50:04.026Z,3.92
2022-08-30T04:52:33.629Z,4.70
2022-08-30T04:55:06.110Z,4.55
2022-08-30T04:57:35.690Z,4.50
2022-08-30T05:00:07.384Z,4.07
2022-08-30T05:02:37.085Z,3.92
2022-08-30T05:05:19.469Z,5.00
2022-08-30T05:07:49.056Z,4.13
2022-08-30T05:10:21.438Z,4.85
2022-08-30T05:12:51.148Z,4.15
2022-08-30T05:15:21.633Z,4.65
2022-08-30T05:17:51.844Z,4.95
2022-08-30T05:20:21.509Z,5.85
2022-08-30T05:22:53.486Z,5.32
2022-08-30T05:25:27.233Z,5.40
2022-08-30T05:27:57.020Z,5.25
2022-08-30T05:30:27.857Z,6.15
2022-08-30T05:32:58.234Z,6.32
2022-08-30T05:35:27.832Z,5.38
2022-08-30T05:37:57.958Z,5.40
2022-08-30T05:40:30.657Z,5.18
2022-08-30T05:43:00.944Z,5.57
2022-08-30T05:45:30.639Z,6.25
2022-08-30T05:48:01.902Z,5.68
2022-08-30T05:50:31.518Z,5.07
2022-08-30T05:53:01.134Z,5.43
2022-08-30T05:55:33.494Z,4.45
2022-08-30T05:58:03.575Z,4.53
2022-08-30T06:00:33.196Z,4.97
2022-08-30T06:03:03.369Z,4.78
2022-08-30T06:05:33.541Z,4.03
2022-08-30T06:08:05.206Z,4.53
2022-08-30T06:10:37.395Z,4.43
2022-08-30T06:13:06.972Z,3.72
2022-08-30T06:15:36.599Z,4.40
2022-08-30T06:18:06.229Z,3.90
2022-08-30T06:20:35.976Z,4.03
2022-08-30T06:23:05.566Z,4.10
2022-08-30T06:25:41.999Z,4.50
2022-08-30T06:28:11.922Z,5.63
2022-08-30T06:30:43.106Z,4.80
2022-08-30T06:33:12.905Z,4.35
2022-08-30T06:35:58.409Z,4.25
2022-08-30T06:38:29.700Z,3.97
2022-08-30T06:41:01.910Z,4.05
2022-08-30T06:43:32.021Z,4.10
2022-08-30T06:46:04.538Z,4.32
2022-08-30T06:48:34.210Z,3.90
2022-08-30T06:51:03.810Z,3.58
2022-08-30T06:53:33.728Z,4.22
2022-08-30T06:56:08.014Z,3.72
2022-08-30T06:58:38.299Z,4.95
2022-08-30T07:01:08.211Z,2.67
2022-08-30T07:03:38.066Z,2.78
2022-08-30T07:06:07.862Z,3.42
2022-08-30T07:08:37.949Z,2.53
2022-08-30T07:11:11.050Z,2.60
2022-08-30T07:13:41.029Z,2.38
2022-08-30T07:16:14.514Z,2.50
2022-08-30T07:18:50.817Z,2.70
2022-08-30T07:21:24.689Z,2.63
2022-08-30T07:23:55.184Z,2.30
2022-08-30T07:26:28.520Z,2.75
2022-08-30T07:28:59.447Z,2.58
2022-08-30T07:31:29.592Z,2.70
2022-08-30T07:33:59.200Z,2.70
2022-08-30T07:36:28.800Z,2.35
2022-08-30T07:38:58.435Z,2.55
2022-08-30T07:41:32.577Z,2.67
2022-08-30T07:44:02.499Z,2.72
2022-08-30T07:46:32.212Z,3.17
2022-08-30T07:49:04.028Z,2.50
2022-08-30T07:51:34.781Z,2.88
2022-08-30T07:54:04.382Z,2.83
2022-08-30T07:56:36.607Z,2.20
2022-08-30T07:59:06.423Z,2.28
2022-08-30T08:01:36.082Z,2.00
2022-08-30T08:04:06.159Z,2.20
2022-08-30T08:06:35.751Z,2.20
2022-08-30T08:09:05.410Z,2.53
2022-08-30T08:11:37.751Z,2.22
2022-08-30T08:14:07.782Z,2.30
2022-08-30T08:16:38.409Z,3.15
2022-08-30T08:19:09.053Z,2.72
2022-08-30T08:21:39.343Z,4.70
2022-08-30T08:24:09.113Z,3.05
2022-08-30T08:26:45.274Z,2.53
2022-08-30T08:29:15.322Z,1.90
2022-08-30T08:31:47.064Z,2.67
2022-08-30T08:34:19.165Z,2.55
2022-08-30T08:36:49.166Z,2.40
2022-08-30T08:39:18.839Z,2.00
2022-08-30T08:41:56.957Z,2.70
2022-08-30T08:44:34.460Z,2.30
2022-08-30T08:47:10.003Z,2.25
2022-08-30T08:49:42.154Z,2.30
2022-08-30T08:52:28.458Z,2.72
2022-08-30T08:55:00.815Z,4.68
2022-08-30T08:57:36.389Z,2.92
2022-08-30T09:00:07.510Z,2.92
2022-08-30T09:02:41.159Z,2.63
2022-08-30T09:05:11.941Z,2.42
2022-08-30T09:07:43.806Z,2.38
2022-08-30T09:10:13.426Z,2.50
2022-08-30T09:12:46.541Z,2.03
2022-08-30T09:15:20.113Z,2.28
2022-08-30T09:17:55.134Z,2.60
2022-08-30T09:20:32.584Z,2.10
2022-08-30T09:23:02.982Z,1.70
2022-08-30T09:25:33.253Z,1.45
2022-08-30T09:28:14.689Z,2.03
2022-08-30T09:31:00.191Z,2.22
2022-08-30T09:33:31.674Z,2.42
2022-08-30T09:36:12.631Z,2.10
2022-08-30T09:38:42.294Z,2.58
2022-08-30T09:41:26.919Z,2.30
2022-08-30T09:44:08.044Z,2.47
2022-08-30T09:46:45.428Z,2.22
2022-08-30T09:49:34.837Z,2.00
2022-08-30T09:52:14.877Z,2.22
2022-08-30T09:54:48.014Z,2.03
2022-08-30T09:57:21.898Z,2.28
2022-08-30T10:00:08.065Z,1.90
2022-08-30T10:02:50.633Z,1.70
2022-08-30T10:05:23.810Z,2.72
2022-08-30T10:08:00.310Z,3.00
2022-08-30T10:10:33.246Z,2.80
2022-08-30T10:13:12.156Z,3.17
2022-08-30T10:15:49.338Z,2.80
2022-08-30T10:18:23.722Z,2.72
2022-08-30T10:20:57.041Z,3.47
2022-08-30T10:23:29.801Z,3.90
2022-08-30T10:26:06.013Z,2.38
2022-08-30T10:28:37.932Z,2.40
2022-08-30T10:31:27.000Z,2.20
2022-08-30T10:33:58.976Z,3.08
2022-08-30T10:36:31.794Z,3.50
2022-08-30T10:39:02.036Z,2.47
2022-08-30T10:41:36.613Z,2.83
2022-08-30T10:44:09.551Z,2.30
2022-08-30T10:46:50.679Z,2.50
2022-08-30T10:49:22.774Z,2.15
2022-08-30T10:51:54.927Z,2.60
2022-08-30T10:54:33.269Z,2.15
2022-08-30T10:57:03.222Z,3.17
2022-08-30T10:59:32.974Z,2.50
2022-08-30T11:02:19.999Z,2.25
2022-08-30T11:05:01.660Z,2.40
2022-08-30T11:07:38.329Z,2.55
2022-08-30T11:10:25.596Z,2.33
2022-08-30T11:12:58.630Z,2.40
2022-08-30T11:15:31.825Z,2.65
2022-08-30T11:18:05.849Z,2.38
2022-08-30T11:20:39.912Z,2.22
2022-08-30T11:23:33.392Z,2.33
2022-08-30T11:26:04.528Z,2.03
2022-08-30T11:29:01.042Z,2.15
2022-08-30T11:31:33.072Z,4.72
2022-08-30T11:34:06.029Z,5.45
2022-08-30T11:36:50.588Z,2.38
2022-08-30T11:39:35.341Z,1.95
2022-08-30T11:42:14.095Z,2.25
2022-08-30T11:47:28.424Z,2.20
2022-08-30T11:50:09.916Z,2.17
2022-08-30T11:52:50.133Z,2.40
2022-08-30T11:55:31.534Z,2.37
2022-08-30T11:58:11.483Z,2.10
2022-08-30T12:00:47.801Z,2.25
2022-08-30T12:03:32.844Z,2.15
2022-08-30T12:06:05.920Z,2.47
2022-08-30T12:08:47.269Z,2.22
2022-08-30T12:11:32.040Z,2.25
2022-08-30T12:14:03.125Z,2.33
2022-08-30T12:16:59.630Z,2.72
2022-08-30T12:19:27.021Z,2.17
2022-08-30T12:22:02.181Z,2.30
2022-08-30T12:24:34.933Z,1.98
2022-08-30T12:27:05.733Z,2.30
2022-08-30T12:29:36.122Z,2.30
2022-08-30T12:32:19.137Z,2.42
2022-08-30T12:34:54.165Z,2.10
2022-08-30T12:37:27.831Z,2.20
2022-08-30T12:40:05.020Z,2.03
2022-08-30T12:42:36.708Z,1.90
2022-08-30T12:45:10.537Z,2.30
2022-08-30T12:47:44.646Z,2.00
2022-08-30T12:50:16.793Z,2.08
2022-08-30T12:52:50.382Z,2.67
2022-08-30T12:55:22.686Z,2.00
2022-08-30T12:58:00.677Z,2.28
2022-08-30T13:00:31.745Z,1.85
2022-08-30T13:03:03.097Z,1.98
2022-08-30T13:05:50.471Z,2.10
2022-08-30T13:08:28.175Z,2.47
2022-08-30T13:10:59.352Z,2.20
2022-08-30T13:13:30.647Z,2.53
2022-08-30T13:16:01.478Z,2.22
2022-08-30T13:18:32.825Z,2.22
2022-08-30T13:21:17.200Z,1.52
2022-08-30T13:23:49.586Z,2.17
2022-08-30T13:26:22.953Z,2.13
2022-08-30T13:28:54.692Z,1.80
2022-08-30T13:31:25.682Z,1.70
2022-08-30T13:33:55.949Z,2.22
2022-08-30T13:36:28.642Z,2.53
2022-08-30T13:39:01.568Z,2.03
2022-08-30T13:41:34.116Z,1.80
2022-08-30T13:44:13.452Z,1.67
2022-08-30T13:46:48.600Z,1.92
2022-08-30T13:52:22.990Z,1.50
2022-08-30T13:54:56.280Z,1.40
2022-08-30T14:00:19.693Z,1.65
2022-08-30T14:02:54.823Z,1.50
2022-08-30T14:11:09.380Z,1.38
2022-08-30T14:13:39.296Z,1.40
2022-08-30T14:16:28.916Z,1.50
2022-08-30T14:18:58.844Z,1.60
2022-08-30T14:21:28.991Z,1.90
2022-08-30T14:23:59.758Z,1.83
2022-08-30T14:26:34.514Z,1.90
2022-08-30T14:29:04.945Z,1.70
2022-08-30T14:31:34.770Z,1.70
2022-08-30T14:34:05.399Z,1.80
2022-08-30T14:36:35.745Z,1.73
2022-08-30T14:39:08.457Z,1.50
2022-08-30T14:41:44.361Z,1.83
2022-08-30T14:44:14.225Z,1.58
2022-08-30T14:46:44.013Z,1.70
2022-08-30T14:49:13.888Z,1.77
2022-08-30T14:51:46.312Z,1.42
2022-08-30T14:54:15.998Z,1.13
2022-08-30T14:56:48.228Z,1.65
2022-08-30T14:59:18.520Z,1.70
2022-08-30T15:01:48.709Z,1.20
2022-08-30T15:04:21.524Z,1.50
2022-08-30T15:06:51.890Z,1.63
2022-08-30T15:09:24.859Z,1.27
2022-08-30T15:11:59.648Z,1.42
2022-08-30T15:14:29.356Z,1.50
2022-08-30T15:16:59.463Z,1.30
2022-08-30T15:19:29.360Z,1.42
2022-08-30T15:22:01.714Z,1.50
2022-08-30T15:24:31.845Z,1.23
2022-08-30T15:27:04.996Z,1.40
2022-08-30T15:29:36.036Z,1.38
2022-08-30T15:32:06.417Z,1.58
2022-08-30T15:34:36.067Z,2.00
2022-08-30T15:37:05.785Z,1.15
2022-08-30T15:39:37.799Z,1.27
2022-08-30T15:42:16.399Z,1.20
2022-08-30T15:44:49.384Z,1.48
2022-08-30T15:47:21.767Z,1.60
2022-08-30T15:49:57.261Z,1.25
2022-08-30T15:52:28.351Z,1.50
2022-08-30T15:54:57.977Z,1.50
2022-08-30T15:57:30.178Z,1.25
2022-08-30T15:59:59.797Z,1.38
2022-08-30T16:02:31.276Z,1.58
2022-08-30T16:05:00.898Z,1.60
2022-08-30T16:07:30.518Z,1.50
2022-08-30T16:10:00.094Z,1.50
2022-08-30T16:12:32.503Z,1.77
2022-08-30T16:15:02.117Z,1.65
2022-08-30T16:17:31.684Z,1.65
2022-08-30T16:20:01.297Z,1.50
2022-08-30T16:22:30.953Z,1.40
2022-08-30T16:25:00.572Z,1.80
2022-08-30T16:27:32.805Z,1.48
2022-08-30T16:30:02.403Z,1.52
2022-08-30T16:32:31.965Z,1.48
2022-08-30T16:35:01.662Z,1.45
2022-08-30T16:37:31.615Z,1.60
2022-08-30T16:40:01.561Z,1.60
2022-08-30T16:42:33.992Z,1.45
2022-08-30T16:45:10.212Z,1.63
2022-08-30T16:47:39.986Z,1.73
2022-08-30T16:50:10.743Z,1.70
2022-08-30T16:52:44.252Z,1.30
2022-08-30T16:55:14.003Z,1.92
2022-08-30T16:57:46.569Z,1.55
2022-08-30T17:00:17.502Z,1.75
2022-08-30T17:02:54.221Z,1.73
2022-08-30T17:05:24.004Z,2.15
2022-08-30T17:07:54.092Z,1.70
2022-08-30T17:10:26.420Z,1.95
2022-08-30T17:13:05.744Z,1.80
2022-08-30T17:15:35.401Z,2.03
2022-08-30T17:18:05.584Z,2.20
2022-08-30T17:20:35.356Z,1.45
2022-08-30T17:23:05.207Z,1.67
2022-08-30T17:25:34.830Z,2.40
2022-08-30T17:28:08.454Z,3.00
2022-08-30T17:30:38.500Z,4.18
2022-08-30T17:33:11.221Z,7.97
2022-08-30T17:35:40.829Z,26.25
2022-08-30T17:38:10.494Z,20.10
2022-08-30T17:40:40.258Z,9.48
2022-08-30T17:43:13.850Z,8.57
2022-08-30T17:45:43.466Z,14.57
2022-08-30T17:48:13.079Z,7.10
2022-08-30T17:50:42.728Z,6.20
2022-08-30T17:53:12.518Z,2.95
2022-08-30T17:55:42.162Z,2.90
2022-08-30T17:58:14.399Z,2.42
2022-08-30T18:00:44.240Z,2.72
2022-08-30T18:03:14.079Z,2.72
2022-08-30T18:05:47.037Z,3.22
2022-08-30T18:08:16.781Z,2.65
2022-08-30T18:10:46.483Z,2.42
2022-08-30T18:13:19.816Z,3.30
2022-08-30T18:15:50.831Z,4.40
2022-08-30T18:18:21.086Z,3.25
2022-08-30T18:20:51.110Z,2.55
2022-08-30T18:23:24.174Z,3.22
2022-08-30T18:25:56.682Z,3.00
2022-08-30T18:28:29.185Z,2.60
2022-08-30T18:30:58.959Z,2.50
2022-08-30T18:33:30.568Z,2.80
2022-08-30T18:36:00.509Z,2.97
2022-08-30T18:38:30.184Z,3.53
2022-08-30T18:41:01.772Z,4.07
2022-08-30T18:43:34.054Z,6.57
2022-08-30T18:46:05.075Z,3.95
2022-08-30T18:48:35.296Z,3.60
2022-08-30T18:51:05.167Z,9.70
2022-08-30T18:53:35.567Z,6.18
2022-08-30T18:56:05.371Z,3.78
2022-08-30T18:58:40.374Z,2.78
2022-08-30T19:01:16.384Z,3.20
2022-08-30T19:03:49.801Z,3.53
2022-08-30T19:06:19.577Z,3.75
2022-08-30T19:08:49.425Z,4.30
2022-08-30T19:11:19.133Z,3.47
2022-08-30T19:13:51.567Z,3.38
2022-08-30T19:16:21.433Z,3.17
2022-08-30T19:18:51.923Z,3.03
2022-08-30T19:21:21.678Z,3.00
2022-08-30T19:23:54.997Z,3.10
2022-08-30T19:26:27.480Z,3.80
2022-08-30T19:29:00.032Z,3.90
2022-08-30T19:31:31.415Z,3.58
2022-08-30T19:34:01.544Z,3.63
2022-08-30T19:36:31.790Z,3.22
2022-08-30T19:39:01.472Z,3.35
2022-08-30T19:41:31.099Z,3.22
2022-08-30T19:44:03.386Z,2.90
2022-08-30T19:46:33.250Z,2.85
2022-08-30T19:49:04.416Z,4.10
2022-08-30T19:51:34.032Z,3.30
2022-08-30T19:54:05.222Z,2.75
2022-08-30T19:56:37.697Z,2.78
2022-08-30T19:59:10.150Z,2.70
2022-08-30T20:01:40.349Z,3.13
2022-08-30T20:04:11.279Z,3.00
2022-08-30T20:06:43.181Z,2.67
2022-08-30T20:09:12.827Z,2.35
2022-08-30T20:11:42.874Z,2.30
2022-08-30T20:14:16.553Z,2.78
2022-08-30T20:16:47.603Z,2.58
2022-08-30T20:19:18.560Z,2.80
2022-08-30T20:21:51.560Z,2.72
2022-08-30T20:24:25.474Z,2.70
2022-08-30T20:26:57.597Z,2.63
2022-08-30T20:29:29.830Z,3.28
2022-08-30T20:31:59.817Z,3.30
2022-08-30T20:34:30.014Z,2.70
2022-08-30T20:37:00.332Z,3.03
2022-08-30T20:39:29.996Z,3.17
2022-08-30T20:42:00.174Z,3.08
2022-08-30T20:44:32.438Z,2.85
2022-08-30T20:47:02.045Z,3.15
2022-08-30T20:49:31.794Z,2.78
2022-08-30T20:52:01.401Z,3.05
2022-08-30T20:54:34.736Z,2.50
2022-08-30T20:57:04.340Z,2.88
2022-08-30T20:59:36.660Z,2.88
2022-08-30T21:02:07.172Z,3.10
2022-08-30T21:04:37.951Z,3.13
2022-08-30T21:07:07.600Z,2.72
2022-08-30T21:09:38.017Z,3.40
2022-08-30T21:12:08.376Z,3.20
2022-08-30T21:14:40.654Z,3.20
2022-08-30T21:17:10.277Z,2.58
2022-08-30T21:19:43.663Z,3.30
2022-08-30T21:22:13.696Z,3.05
2022-08-30T21:24:43.272Z,2.80
2022-08-30T21:27:13.992Z,3.13
2022-08-30T21:29:46.261Z,3.10
2022-08-30T21:32:15.976Z,2.47
2022-08-30T21:34:57.752Z,3.20
2022-08-30T21:37:27.397Z,2.83
2022-08-30T21:39:57.941Z,3.10
2022-08-30T21:42:27.741Z,3.25
2022-08-30T21:44:59.973Z,3.10
2022-08-30T21:47:29.605Z,3.45
2022-08-30T21:49:59.196Z,3.10
2022-08-30T21:52:28.805Z,3.60
2022-08-30T21:55:00.041Z,3.88
2022-08-30T21:57:29.994Z,3.30
2022-08-30T22:00:02.175Z,3.30
2022-08-30T22:02:35.062Z,3.00
2022-08-30T22:05:04.708Z,3.40
2022-08-30T22:07:37.446Z,3.13
2022-08-30T22:10:07.545Z,2.67
2022-08-30T22:12:37.564Z,3.30
2022-08-30T22:15:10.509Z,3.05
2022-08-30T22:17:40.223Z,3.38
2022-08-30T22:20:10.720Z,2.90
2022-08-30T22:22:44.885Z,3.45
2022-08-30T22:25:14.687Z,3.08
2022-08-30T22:27:44.463Z,2.85
2022-08-30T22:30:17.851Z,2.75
2022-08-30T22:32:47.769Z,3.28
2022-08-30T22:35:17.511Z,3.30
2022-08-30T22:37:53.407Z,3.20
2022-08-30T22:40:23.791Z,2.85
2022-08-30T22:42:53.571Z,2.75
2022-08-30T22:45:25.970Z,2.90
2022-08-30T22:47:55.742Z,3.00
2022-08-30T22:50:25.564Z,3.25
2022-08-30T22:52:55.265Z,2.70
2022-08-30T22:55:25.058Z,2.92
2022-08-30T22:57:54.872Z,3.10
2022-08-30T23:00:27.515Z,3.35
2022-08-30T23:02:57.211Z,3.40
2022-08-30T23:05:27.416Z,3.53
2022-08-30T23:07:57.167Z,3.67
2022-08-30T23:10:28.314Z,3.20
2022-08-30T23:12:58.003Z,3.22
2022-08-30T23:15:30.641Z,3.30
2022-08-30T23:18:00.252Z,2.92
2022-08-30T23:20:29.834Z,2.95
2022-08-30T23:22:59.654Z,2.78
2022-08-30T23:25:44.429Z,3.13
2022-08-30T23:28:26.940Z,3.15
2022-08-30T23:31:11.573Z,2.75
2022-08-30T23:33:53.561Z,3.22
2022-08-30T23:36:35.665Z,3.10
2022-08-30T23:39:18.500Z,3.03
2022-08-30T23:42:00.584Z,3.28
2022-08-30T23:44:42.775Z,2.92
2022-08-30T23:47:27.380Z,3.08
2022-08-30T23:50:12.415Z,3.33
2022-08-30T23:52:54.482Z,3.35
2022-08-30T23:55:37.511Z,3.05
2022-08-30T23:58:19.503Z,3.35
